Time;durP1;ratioP1;P1;durP2;ratioP2;P2;SDS_P1;SDS_P2;PMS_P1;PMS_P2;Temp;Humidity;BMP_temperature;BMP_pressure;BME280_temperature;BME280_humidity;BME280_pressure;Samples;Min_cycle;Max_cycle;Signal;HPM_P1;HPM_P2
2021/10/26 00:02:07;;;;;;;64.32;9.05;;;;;;;;;;5009850;28;20021;-49
2021/10/26 00:04:34;;;;;;;53.20;7.60;;;;;;;;;;5010320;28;20083;-46
2021/10/26 00:07:01;;;;;;;47.63;7.53;;;;;;;;;;5010269;28;20024;-48
2021/10/26 00:09:28;;;;;;;38.72;6.95;;;;;;;;;;5010414;28;20030;-49
2021/10/26 00:11:55;;;;;;;44.75;7.45;;;;;;;;;;5010967;28;20060;-53
2021/10/26 00:14:22;;;;;;;53.38;8.32;;;;;;;;;;5010720;28;20022;-52
2021/10/26 00:16:50;;;;;;;61.00;7.97;;;;;;;;;;4991880;28;20029;-50
2021/10/26 00:19:17;;;;;;;77.57;10.30;;;;;;;;;;5010084;28;20049;-48
2021/10/26 00:21:44;;;;;;;58.65;7.10;;;;;;;;;;5011045;28;20082;-52
2021/10/26 00:24:11;;;;;;;66.50;8.07;;;;;;;;;;5009765;28;20029;-57
2021/10/26 00:26:38;;;;;;;62.30;9.80;;;;;;;;;;5010463;28;20105;-57
2021/10/26 00:29:05;;;;;;;66.72;8.85;;;;;;;;;;5010141;28;20022;-52
2021/10/26 00:31:33;;;;;;;63.45;8.57;;;;;;;;;;5010550;28;20102;-53
2021/10/26 00:34:00;;;;;;;57.50;8.65;;;;;;;;;;5010137;28;20022;-53
2021/10/26 00:36:27;;;;;;;62.92;8.80;;;;;;;;;;5011237;28;20022;-51
2021/10/26 00:38:54;;;;;;;63.78;8.60;;;;;;;;;;5008879;28;20057;-49
2021/10/26 00:41:21;;;;;;;86.75;9.90;;;;;;;;;;5011528;28;20029;-52
2021/10/26 00:43:49;;;;;;;56.13;8.90;;;;;;;;;;5009712;28;20041;-50
2021/10/26 00:46:27;;;;;;;81.68;10.43;;;;;;;;;;5002636;28;20109;-52
2021/10/26 00:48:54;;;;;;;70.13;10.90;;;;;;;;;;5005265;28;20297;-51
2021/10/26 00:51:22;;;;;;;84.70;12.75;;;;;;;;;;5010913;28;20517;-51
2021/10/26 00:53:49;;;;;;;96.18;12.88;;;;;;;;;;5010169;28;20470;-50
2021/10/26 00:56:16;;;;;;;89.15;13.40;;;;;;;;;;5010781;28;20022;-54
2021/10/26 00:58:43;;;;;;;104.57;13.68;;;;;;;;;;4998716;28;20030;-51
2021/10/26 01:01:10;;;;;;;100.03;13.43;;;;;;;;;;4991289;28;20113;-46
2021/10/26 01:03:37;;;;;;;102.85;15.82;;;;;;;;;;4991440;28;20532;-52
2021/10/26 01:06:04;;;;;;;101.80;15.15;;;;;;;;;;4977090;28;20451;-51
2021/10/26 01:08:32;;;;;;;113.15;15.70;;;;;;;;;;4984793;28;20030;-46
2021/10/26 01:11:00;;;;;;;106.35;15.70;;;;;;;;;;4982299;28;20406;-49
2021/10/26 01:13:27;;;;;;;102.93;16.58;;;;;;;;;;4983804;28;20082;-51
2021/10/26 01:15:57;;;;;;;112.18;18.25;;;;;;;;;;4987001;28;20030;-48
2021/10/26 01:18:25;;;;;;;123.30;16.63;;;;;;;;;;4988219;28;20030;-54
2021/10/26 01:20:53;;;;;;;109.50;16.60;;;;;;;;;;4984179;28;20050;-48
2021/10/26 01:23:21;;;;;;;104.35;15.70;;;;;;;;;;4981525;28;20033;-49
2021/10/26 01:25:48;;;;;;;120.68;16.23;;;;;;;;;;4985569;28;20038;-56
2021/10/26 01:28:16;;;;;;;118.32;17.55;;;;;;;;;;4982957;28;20030;-48
2021/10/26 01:30:43;;;;;;;100.05;15.98;;;;;;;;;;4985205;28;20049;-46
2021/10/26 01:33:10;;;;;;;105.75;15.40;;;;;;;;;;4988762;28;20030;-53
2021/10/26 01:35:37;;;;;;;93.05;13.93;;;;;;;;;;4981786;28;20026;-53
2021/10/26 01:38:06;;;;;;;106.28;14.23;;;;;;;;;;4975080;28;20366;-57
2021/10/26 01:40:33;;;;;;;101.88;13.48;;;;;;;;;;4984407;28;20073;-52
2021/10/26 01:43:00;;;;;;;104.78;15.30;;;;;;;;;;4987630;28;20057;-56
2021/10/26 01:45:27;;;;;;;109.38;14.90;;;;;;;;;;4995207;28;20043;-56
2021/10/26 01:47:55;;;;;;;98.68;14.52;;;;;;;;;;4993390;28;20026;-55
2021/10/26 01:50:22;;;;;;;92.60;13.68;;;;;;;;;;4985762;28;20486;-57
2021/10/26 01:52:49;;;;;;;101.65;14.98;;;;;;;;;;4992621;28;20434;-56
2021/10/26 01:55:18;;;;;;;77.75;13.93;;;;;;;;;;4989958;28;20113;-57
2021/10/26 01:57:48;;;;;;;100.93;15.55;;;;;;;;;;4988713;28;20041;-55
2021/10/26 02:00:18;;;;;;;94.53;15.40;;;;;;;;;;4987693;28;20098;-52
2021/10/26 02:02:49;;;;;;;78.55;12.88;;;;;;;;;;4984556;28;20045;-53
2021/10/26 02:05:17;;;;;;;86.80;13.82;;;;;;;;;;4991148;28;20038;-53
2021/10/26 02:07:44;;;;;;;69.40;12.45;;;;;;;;;;5003488;28;20022;-48
2021/10/26 02:10:12;;;;;;;65.13;13.13;;;;;;;;;;5011452;28;20041;-50
2021/10/26 02:12:39;;;;;;;73.03;12.40;;;;;;;;;;5009838;28;20027;-50
2021/10/26 02:15:07;;;;;;;70.97;11.52;;;;;;;;;;5013117;28;20020;-53
2021/10/26 02:17:34;;;;;;;86.25;14.27;;;;;;;;;;5012886;28;20128;-49
2021/10/26 02:20:01;;;;;;;70.90;12.35;;;;;;;;;;5012484;28;20127;-53
2021/10/26 02:22:28;;;;;;;70.55;13.05;;;;;;;;;;5013249;28;20033;-47
2021/10/26 02:24:55;;;;;;;68.40;12.27;;;;;;;;;;5013281;28;20037;-51
2021/10/26 02:27:22;;;;;;;72.80;12.15;;;;;;;;;;5012940;28;20033;-50
2021/10/26 02:29:51;;;;;;;67.93;12.43;;;;;;;;;;5012068;28;20092;-55
2021/10/26 02:32:18;;;;;;;57.78;12.23;;;;;;;;;;5012325;28;20033;-49
2021/10/26 02:34:45;;;;;;;61.40;13.23;;;;;;;;;;5012507;28;20025;-50
2021/10/26 02:37:12;;;;;;;60.05;11.00;;;;;;;;;;5011833;28;20100;-48
2021/10/26 02:39:39;;;;;;;67.90;10.63;;;;;;;;;;5012422;28;20018;-46
2021/10/26 02:42:06;;;;;;;47.85;7.90;;;;;;;;;;5002323;28;20030;-51
2021/10/26 02:44:34;;;;;;;89.82;9.68;;;;;;;;;;5008882;28;20630;-49
2021/10/26 02:47:01;;;;;;;64.82;8.65;;;;;;;;;;5013168;28;20371;-54
2021/10/26 02:49:28;;;;;;;62.58;8.15;;;;;;;;;;5011969;28;20010;-51
2021/10/26 02:51:55;;;;;;;52.58;8.00;;;;;;;;;;5012049;28;20022;-51
2021/10/26 02:54:22;;;;;;;62.72;8.07;;;;;;;;;;5011654;28;20040;-52
2021/10/26 02:56:49;;;;;;;43.97;6.43;;;;;;;;;;5009795;28;20006;-49
2021/10/26 02:59:18;;;;;;;45.85;6.25;;;;;;;;;;5012604;28;20018;-47
2021/10/26 03:01:46;;;;;;;34.67;5.90;;;;;;;;;;5009660;28;20018;-56
2021/10/26 03:04:13;;;;;;;44.05;6.13;;;;;;;;;;5012408;28;20022;-48
2021/10/26 03:06:43;;;;;;;56.33;6.82;;;;;;;;;;5012497;28;20030;-50
2021/10/26 03:09:10;;;;;;;33.70;5.82;;;;;;;;;;5013037;28;20072;-47
2021/10/26 03:11:38;;;;;;;36.92;5.35;;;;;;;;;;5013326;28;20026;-50
2021/10/26 03:14:06;;;;;;;37.35;6.30;;;;;;;;;;5012970;28;20018;-47
2021/10/26 03:16:33;;;;;;;33.75;6.15;;;;;;;;;;5012799;28;20486;-49
2021/10/26 03:19:04;;;;;;;27.60;5.90;;;;;;;;;;5013053;28;20026;-46
2021/10/26 03:21:33;;;;;;;29.42;5.68;;;;;;;;;;5012974;28;20033;-52
2021/10/26 03:24:00;;;;;;;28.60;5.07;;;;;;;;;;5012796;28;20409;-50
2021/10/26 03:26:27;;;;;;;31.98;5.80;;;;;;;;;;5012736;28;20077;-50
2021/10/26 03:28:54;;;;;;;33.13;5.07;;;;;;;;;;5011735;28;20470;-49
2021/10/26 03:31:21;;;;;;;26.67;5.03;;;;;;;;;;5012823;28;20137;-48
2021/10/26 03:33:48;;;;;;;26.60;4.18;;;;;;;;;;5012722;28;20013;-46
2021/10/26 03:36:17;;;;;;;29.48;5.55;;;;;;;;;;5012541;28;20072;-51
2021/10/26 03:38:44;;;;;;;21.63;4.05;;;;;;;;;;5012983;28;20121;-50
2021/10/26 03:41:11;;;;;;;28.17;4.38;;;;;;;;;;5012553;28;20083;-47
2021/10/26 03:43:38;;;;;;;36.58;5.72;;;;;;;;;;5012333;28;20045;-51
2021/10/26 03:46:05;;;;;;;27.80;4.82;;;;;;;;;;5012260;28;20531;-66
2021/10/26 03:48:32;;;;;;;19.83;4.60;;;;;;;;;;5012590;28;20073;-49
2021/10/26 03:50:59;;;;;;;30.77;5.28;;;;;;;;;;5012409;28;20397;-48
2021/10/26 03:53:28;;;;;;;30.27;4.00;;;;;;;;;;5012474;28;20018;-49
2021/10/26 03:55:55;;;;;;;32.03;4.47;;;;;;;;;;5012033;28;20482;-47
2021/10/26 03:58:22;;;;;;;20.33;3.80;;;;;;;;;;5012371;28;20080;-56
2021/10/26 04:00:49;;;;;;;23.58;4.90;;;;;;;;;;5012249;28;20045;-47
2021/10/26 04:03:16;;;;;;;18.90;3.80;;;;;;;;;;5012142;28;20093;-47
2021/10/26 04:05:49;;;;;;;16.25;4.35;;;;;;;;;;5012036;28;20523;-50
2021/10/26 04:10:51;;;;;;;15.02;2.85;;;;;;;;;;5012209;28;20022;-46
2021/10/26 04:13:20;;;;;;;18.67;3.50;;;;;;;;;;5012006;28;20044;-47
2021/10/26 04:15:47;;;;;;;14.73;3.55;;;;;;;;;;5011662;28;20046;-50
2021/10/26 04:18:15;;;;;;;14.73;3.50;;;;;;;;;;5011941;28;20064;-48
2021/10/26 04:20:42;;;;;;;16.20;3.03;;;;;;;;;;5011959;28;20033;-47
2021/10/26 04:23:09;;;;;;;19.75;3.28;;;;;;;;;;5012004;28;20025;-50
2021/10/26 04:25:36;;;;;;;18.77;3.35;;;;;;;;;;5012043;28;20026;-48
2021/10/26 04:28:04;;;;;;;13.35;3.22;;;;;;;;;;5010213;28;20367;-50
2021/10/26 04:30:33;;;;;;;14.05;3.42;;;;;;;;;;5012073;28;20083;-50
2021/10/26 04:33:00;;;;;;;12.75;2.80;;;;;;;;;;5011728;28;20046;-48
2021/10/26 04:35:27;;;;;;;13.85;2.95;;;;;;;;;;5011875;28;20113;-50
2021/10/26 04:37:55;;;;;;;21.08;2.92;;;;;;;;;;5011660;28;20030;-53
2021/10/26 04:40:22;;;;;;;16.33;2.75;;;;;;;;;;5011785;28;20026;-49
2021/10/26 04:42:49;;;;;;;18.88;2.53;;;;;;;;;;5011716;28;20036;-48
2021/10/26 04:45:16;;;;;;;20.13;2.70;;;;;;;;;;5011761;28;20054;-53
2021/10/26 04:47:44;;;;;;;14.18;3.03;;;;;;;;;;5011430;28;20102;-52
2021/10/26 04:50:11;;;;;;;16.45;2.28;;;;;;;;;;5011699;28;20030;-49
2021/10/26 04:52:39;;;;;;;12.70;3.08;;;;;;;;;;5011695;28;20014;-47
2021/10/26 04:55:06;;;;;;;14.15;3.10;;;;;;;;;;5011901;28;20394;-49
2021/10/26 04:57:33;;;;;;;12.15;2.95;;;;;;;;;;5011537;28;20493;-48
2021/10/26 05:00:00;;;;;;;15.20;2.80;;;;;;;;;;5011532;28;20026;-49
2021/10/26 05:02:27;;;;;;;18.52;2.40;;;;;;;;;;5011540;28;20029;-48
2021/10/26 05:04:54;;;;;;;14.18;2.85;;;;;;;;;;5011558;28;20076;-51
2021/10/26 05:07:21;;;;;;;17.95;2.60;;;;;;;;;;5011322;28;20022;-55
2021/10/26 05:09:48;;;;;;;13.02;2.70;;;;;;;;;;4997784;28;20371;-48
2021/10/26 05:12:15;;;;;;;10.73;2.17;;;;;;;;;;4993844;28;20041;-47
2021/10/26 05:14:42;;;;;;;11.45;2.28;;;;;;;;;;4995635;28;20098;-48
2021/10/26 05:17:12;;;;;;;12.73;2.70;;;;;;;;;;4995566;28;20077;-47
2021/10/26 05:19:40;;;;;;;11.95;2.05;;;;;;;;;;4995642;28;20057;-47
2021/10/26 05:22:08;;;;;;;14.48;2.20;;;;;;;;;;4995485;28;20089;-46
2021/10/26 05:24:35;;;;;;;10.65;2.08;;;;;;;;;;4995549;28;20038;-49
2021/10/26 05:27:02;;;;;;;15.45;2.40;;;;;;;;;;4995399;28;20029;-45
2021/10/26 05:29:29;;;;;;;15.57;2.17;;;;;;;;;;4995651;28;20356;-46
2021/10/26 05:31:56;;;;;;;9.30;1.70;;;;;;;;;;4995396;28;20105;-49
2021/10/26 05:34:24;;;;;;;10.10;2.00;;;;;;;;;;4995450;28;20022;-47
2021/10/26 05:36:52;;;;;;;10.38;2.08;;;;;;;;;;4995362;28;20034;-47
2021/10/26 05:39:19;;;;;;;17.15;2.00;;;;;;;;;;4995283;28;20101;-53
2021/10/26 05:41:49;;;;;;;23.60;2.92;;;;;;;;;;4995178;28;20034;-47
2021/10/26 05:44:16;;;;;;;19.90;2.10;;;;;;;;;;4994848;28;20058;-48
2021/10/26 05:46:43;;;;;;;10.45;1.77;;;;;;;;;;4995163;28;20042;-52
2021/10/26 05:49:10;;;;;;;12.43;2.15;;;;;;;;;;4994896;28;20438;-48
2021/10/26 05:51:37;;;;;;;11.02;2.15;;;;;;;;;;4995277;28;20050;-46
2021/10/26 05:54:04;;;;;;;18.38;2.40;;;;;;;;;;4994931;28;20022;-46
2021/10/26 05:56:31;;;;;;;8.02;2.20;;;;;;;;;;4995462;28;20057;-48
2021/10/26 05:58:58;;;;;;;10.40;2.72;;;;;;;;;;4993389;28;20529;-46
2021/10/26 06:01:26;;;;;;;10.43;2.10;;;;;;;;;;4995117;28;20037;-47
2021/10/26 06:03:53;;;;;;;13.18;2.35;;;;;;;;;;4994750;28;20105;-51
2021/10/26 06:06:21;;;;;;;13.73;2.05;;;;;;;;;;4994775;28;20060;-47
2021/10/26 06:08:51;;;;;;;9.20;2.47;;;;;;;;;;4994417;28;20101;-49
2021/10/26 06:11:22;;;;;;;8.38;1.75;;;;;;;;;;4995036;28;20048;-49
2021/10/26 06:14:00;;;;;;;6.95;1.65;;;;;;;;;;4994348;28;20022;-48
2021/10/26 06:16:28;;;;;;;8.05;1.95;;;;;;;;;;4994583;28;20022;-47
2021/10/26 06:18:55;;;;;;;11.50;1.80;;;;;;;;;;4994317;28;20475;-48
2021/10/26 06:21:22;;;;;;;6.85;1.80;;;;;;;;;;4994792;28;20054;-48
2021/10/26 06:23:49;;;;;;;12.27;2.15;;;;;;;;;;4992955;28;20038;-47
2021/10/26 06:26:15;;;;;;;8.80;1.95;;;;;;;;;;4994439;28;20038;-48
2021/10/26 06:28:43;;;;;;;12.00;2.75;;;;;;;;;;4994151;28;20027;-48
2021/10/26 06:31:10;;;;;;;7.03;1.77;;;;;;;;;;4994327;28;20030;-47
2021/10/26 06:33:37;;;;;;;11.55;1.77;;;;;;;;;;4994527;28;20026;-49
2021/10/26 06:36:04;;;;;;;7.93;1.80;;;;;;;;;;4994399;28;20049;-49
2021/10/26 06:38:31;;;;;;;13.13;2.33;;;;;;;;;;4994117;28;20077;-45
2021/10/26 06:40:58;;;;;;;5.03;1.58;;;;;;;;;;4993514;28;20497;-47
2021/10/26 06:43:25;;;;;;;8.80;2.00;;;;;;;;;;4993830;28;20391;-47
2021/10/26 06:45:52;;;;;;;11.38;2.10;;;;;;;;;;4993808;28;20041;-46
2021/10/26 06:48:20;;;;;;;9.50;2.20;;;;;;;;;;4992417;28;20034;-45
2021/10/26 06:50:47;;;;;;;13.07;2.55;;;;;;;;;;4992952;28;20466;-47
2021/10/26 06:53:14;;;;;;;12.50;2.42;;;;;;;;;;4994010;28;20057;-52
2021/10/26 06:55:43;;;;;;;8.57;2.13;;;;;;;;;;4993978;28;20034;-47
2021/10/26 06:58:10;;;;;;;6.80;2.17;;;;;;;;;;4994025;28;20036;-46
2021/10/26 07:00:37;;;;;;;11.30;2.28;;;;;;;;;;4993765;28;20025;-47
2021/10/26 07:03:04;;;;;;;7.50;2.25;;;;;;;;;;4993719;28;20033;-51
2021/10/26 07:05:32;;;;;;;8.63;2.05;;;;;;;;;;4993697;28;20027;-46
2021/10/26 07:07:59;;;;;;;7.22;2.15;;;;;;;;;;4993514;28;20486;-48
2021/10/26 07:10:26;;;;;;;5.43;1.60;;;;;;;;;;4993280;28;20034;-46
2021/10/26 07:12:54;;;;;;;11.95;2.30;;;;;;;;;;4993774;28;20017;-47
2021/10/26 07:15:22;;;;;;;4.65;2.28;;;;;;;;;;4993537;28;20092;-47
2021/10/26 07:17:50;;;;;;;13.48;3.35;;;;;;;;;;4993461;28;20434;-48
2021/10/26 07:20:17;;;;;;;19.00;3.55;;;;;;;;;;4993346;28;20080;-64
2021/10/26 07:22:51;;;;;;;10.90;3.10;;;;;;;;;;4993503;28;20105;-47
2021/10/26 07:25:18;;;;;;;16.58;3.20;;;;;;;;;;4993251;28;20030;-47
2021/10/26 07:27:47;;;;;;;10.45;2.60;;;;;;;;;;4991978;28;20022;-49
2021/10/26 07:30:14;;;;;;;7.72;2.40;;;;;;;;;;4993092;28;20031;-46
2021/10/26 07:32:42;;;;;;;7.40;2.58;;;;;;;;;;4993161;28;20362;-46
2021/10/26 07:35:09;;;;;;;14.93;2.85;;;;;;;;;;4992814;28;20019;-48
2021/10/26 07:37:45;;;;;;;14.50;3.05;;;;;;;;;;4993376;28;20113;-46
2021/10/26 07:40:13;;;;;;;8.20;2.80;;;;;;;;;;4992950;28;20034;-46
2021/10/26 07:42:40;;;;;;;10.65;3.20;;;;;;;;;;4993051;28;20072;-58
2021/10/26 07:45:08;;;;;;;7.45;2.58;;;;;;;;;;4991430;28;20043;-47
2021/10/26 07:47:36;;;;;;;10.70;2.30;;;;;;;;;;4993199;28;20030;-51
2021/10/26 07:50:04;;;;;;;7.80;2.72;;;;;;;;;;4992610;28;20018;-50
2021/10/26 07:52:31;;;;;;;10.00;2.45;;;;;;;;;;4992741;28;20486;-46
2021/10/26 07:54:58;;;;;;;5.85;1.88;;;;;;;;;;4993027;28;20077;-49
2021/10/26 07:57:27;;;;;;;8.95;2.00;;;;;;;;;;4992867;28;20026;-51
2021/10/26 07:59:54;;;;;;;11.73;2.67;;;;;;;;;;4992412;28;20045;-48
2021/10/26 08:02:22;;;;;;;8.43;2.22;;;;;;;;;;4992910;28;20025;-45
2021/10/26 08:04:54;;;;;;;5.78;1.90;;;;;;;;;;4992421;28;20394;-46
2021/10/26 08:07:22;;;;;;;4.88;2.22;;;;;;;;;;4992467;28;20038;-48
2021/10/26 08:09:50;;;;;;;9.82;2.35;;;;;;;;;;4992299;28;20385;-48
2021/10/26 08:12:18;;;;;;;7.05;1.90;;;;;;;;;;4992948;28;20382;-48
2021/10/26 08:14:45;;;;;;;8.50;1.92;;;;;;;;;;4992443;28;20022;-48
2021/10/26 08:17:12;;;;;;;8.75;2.08;;;;;;;;;;4992553;28;20022;-47
2021/10/26 08:19:42;;;;;;;8.60;2.55;;;;;;;;;;4992441;28;20098;-46
2021/10/26 08:22:13;;;;;;;7.60;1.85;;;;;;;;;;4992307;28;20486;-47
2021/10/26 08:24:42;;;;;;;10.90;1.85;;;;;;;;;;4992187;28;20039;-47
2021/10/26 08:27:13;;;;;;;6.65;1.85;;;;;;;;;;4992281;28;20482;-46
2021/10/26 08:37:08;;;;;;;6.88;1.85;;;;;;;;;;4992754;28;20104;-48
2021/10/26 08:39:38;;;;;;;11.90;2.22;;;;;;;;;;4992326;28;20053;-47
2021/10/26 08:42:08;;;;;;;5.63;1.67;;;;;;;;;;4991884;28;20097;-46
2021/10/26 08:44:35;;;;;;;5.68;1.65;;;;;;;;;;4992074;28;20046;-50
2021/10/26 08:47:02;;;;;;;12.98;1.98;;;;;;;;;;4994208;28;20030;-46
2021/10/26 08:49:29;;;;;;;9.20;1.80;;;;;;;;;;4996297;28;20121;-46
2021/10/26 08:51:57;;;;;;;7.95;2.08;;;;;;;;;;4996012;28;20113;-48
2021/10/26 08:54:24;;;;;;;8.95;2.00;;;;;;;;;;4996335;28;20093;-47
2021/10/26 08:56:51;;;;;;;8.98;2.10;;;;;;;;;;4996107;28;20038;-47
2021/10/26 08:59:20;;;;;;;9.68;2.10;;;;;;;;;;4996029;28;20020;-47
2021/10/26 09:01:51;;;;;;;9.73;2.40;;;;;;;;;;4995680;28;20034;-48
2021/10/26 09:04:19;;;;;;;11.10;2.60;;;;;;;;;;4995922;28;20030;-46
2021/10/26 09:06:52;;;;;;;10.73;2.50;;;;;;;;;;4996117;28;20030;-47
2021/10/26 09:09:29;;;;;;;25.33;2.90;;;;;;;;;;4995991;28;20363;-46
2021/10/26 09:18:00;;;;;;;23.90;3.35;;;;;;;;;;4995790;28;20086;-49
2021/10/26 09:20:30;;;;;;;109.18;9.00;;;;;;;;;;4994429;28;20030;-46
2021/10/26 09:22:59;;;;;;;18.23;3.67;;;;;;;;;;4995417;28;20473;-46
2021/10/26 09:25:40;;;;;;;17.42;2.83;;;;;;;;;;4995572;28;20470;-48
2021/10/26 09:28:14;;;;;;;13.70;2.80;;;;;;;;;;4995213;28;20030;-48
2021/10/26 09:30:58;;;;;;;11.70;2.47;;;;;;;;;;4995552;28;20026;-46
2021/10/26 09:33:29;;;;;;;11.73;2.45;;;;;;;;;;4995207;28;20478;-48
2021/10/26 09:36:16;;;;;;;12.15;2.47;;;;;;;;;;4994101;28;20027;-48
2021/10/26 09:38:43;;;;;;;16.17;2.60;;;;;;;;;;4995337;28;20030;-47
2021/10/26 09:41:10;;;;;;;15.48;3.20;;;;;;;;;;4995175;28;20459;-56
2021/10/26 09:43:38;;;;;;;66.93;5.65;;;;;;;;;;4994374;28;20038;-51
2021/10/26 09:46:05;;;;;;;59.35;6.03;;;;;;;;;;5005698;28;20038;-46
2021/10/26 09:48:34;;;;;;;103.43;7.60;;;;;;;;;;5013803;28;20026;-45
2021/10/26 09:51:08;;;;;;;278.65;21.52;;;;;;;;;;5013723;28;20396;-47
2021/10/26 09:53:36;;;;;;;191.65;14.20;;;;;;;;;;5013730;28;20073;-53
2021/10/26 09:56:04;;;;;;;180.80;15.05;;;;;;;;;;5013855;28;20021;-46
2021/10/26 09:58:33;;;;;;;110.32;9.25;;;;;;;;;;5013285;28;20493;-46
2021/10/26 10:01:09;;;;;;;120.43;12.32;;;;;;;;;;5014313;28;20379;-48
2021/10/26 10:03:36;;;;;;;425.60;32.80;;;;;;;;;;5014051;28;20022;-50
2021/10/26 10:06:06;;;;;;;218.80;19.02;;;;;;;;;;5014273;28;20038;-48
2021/10/26 10:08:38;;;;;;;209.30;17.63;;;;;;;;;;5014387;28;20029;-48
2021/10/26 10:11:17;;;;;;;130.27;10.73;;;;;;;;;;5014213;28;20021;-47
2021/10/26 10:13:44;;;;;;;113.05;10.23;;;;;;;;;;5013998;28;20068;-48
2021/10/26 10:16:18;;;;;;;229.48;17.80;;;;;;;;;;5014240;28;20025;-46
2021/10/26 10:18:46;;;;;;;158.23;13.65;;;;;;;;;;5014276;28;20502;-51
2021/10/26 10:21:15;;;;;;;142.93;13.07;;;;;;;;;;5014162;28;20025;-49
2021/10/26 10:23:43;;;;;;;141.10;14.43;;;;;;;;;;5013463;28;20025;-45
2021/10/26 10:26:13;;;;;;;104.00;9.80;;;;;;;;;;5013893;28;20060;-47
2021/10/26 10:28:44;;;;;;;143.90;14.05;;;;;;;;;;5013986;28;20014;-48
2021/10/26 10:31:13;;;;;;;289.23;24.27;;;;;;;;;;5010394;28;20446;-47
2021/10/26 10:33:40;;;;;;;80.55;7.22;;;;;;;;;;5012336;28;20029;-47
2021/10/26 10:36:09;;;;;;;68.32;7.47;;;;;;;;;;5013208;28;20087;-49
2021/10/26 10:38:36;;;;;;;58.75;6.40;;;;;;;;;;5013061;28;20030;-45
2021/10/26 10:41:23;;;;;;;74.68;6.88;;;;;;;;;;5011753;28;20025;-49
2021/10/26 10:43:51;;;;;;;77.78;7.88;;;;;;;;;;5006505;28;20042;-46
2021/10/26 10:46:37;;;;;;;61.58;6.47;;;;;;;;;;5010560;28;20038;-49
2021/10/26 10:49:27;;;;;;;68.07;5.93;;;;;;;;;;5004495;28;20095;-46
2021/10/26 10:51:58;;;;;;;51.78;5.13;;;;;;;;;;5013061;28;20461;-46
2021/10/26 10:57:25;;;;;;;70.38;6.80;;;;;;;;;;5013462;28;20022;-47
2021/10/26 10:59:53;;;;;;;76.15;7.97;;;;;;;;;;5012904;28;20386;-49
2021/10/26 11:02:26;;;;;;;65.30;7.05;;;;;;;;;;5013087;28;20021;-48
2021/10/26 11:04:54;;;;;;;67.45;6.03;;;;;;;;;;5012954;28;20033;-49
2021/10/26 11:07:40;;;;;;;59.20;6.03;;;;;;;;;;5012096;28;20022;-47
2021/10/26 11:10:08;;;;;;;52.53;5.05;;;;;;;;;;5012351;28;20045;-46
2021/10/26 11:12:37;;;;;;;52.47;4.80;;;;;;;;;;5012247;28;20037;-48
2021/10/26 11:15:07;;;;;;;61.08;5.57;;;;;;;;;;5012334;28;20009;-45
2021/10/26 11:17:40;;;;;;;53.83;6.50;;;;;;;;;;5012137;28;20109;-47
2021/10/26 11:20:10;;;;;;;111.43;8.82;;;;;;;;;;5012719;28;20030;-46
2021/10/26 11:22:46;;;;;;;72.70;8.30;;;;;;;;;;5012120;28;20030;-46
2021/10/26 11:25:19;;;;;;;300.92;15.05;;;;;;;;;;5012208;28;20100;-45
2021/10/26 11:27:47;;;;;;;199.77;13.00;;;;;;;;;;5012777;28;20049;-44
2021/10/26 11:30:29;;;;;;;102.95;8.98;;;;;;;;;;5012722;28;20020;-47
2021/10/26 11:33:25;;;;;;;89.10;7.10;;;;;;;;;;5012070;28;20024;-45
2021/10/26 11:36:12;;;;;;;108.32;7.20;;;;;;;;;;4999463;28;20505;-45
2021/10/26 11:38:42;;;;;;;62.85;5.32;;;;;;;;;;5012390;28;20030;-57
2021/10/26 11:41:09;;;;;;;100.57;7.75;;;;;;;;;;5007033;28;20105;-46
2021/10/26 11:43:42;;;;;;;65.35;5.85;;;;;;;;;;5011716;28;20040;-47
2021/10/26 11:46:11;;;;;;;99.95;8.15;;;;;;;;;;4990930;28;20038;-46
2021/10/26 11:48:47;;;;;;;93.38;8.35;;;;;;;;;;4992180;28;20030;-43
2021/10/26 11:51:26;;;;;;;54.97;5.32;;;;;;;;;;5007822;28;20108;-47
2021/10/26 11:53:56;;;;;;;34.30;4.13;;;;;;;;;;5000699;28;20034;-44
2021/10/26 11:56:32;;;;;;;66.93;5.20;;;;;;;;;;4993379;28;20042;-43
2021/10/26 11:59:01;;;;;;;48.17;4.28;;;;;;;;;;5009097;28;20026;-44
2021/10/26 12:01:37;;;;;;;42.70;4.47;;;;;;;;;;5011141;28;20478;-44
2021/10/26 12:04:24;;;;;;;39.88;3.70;;;;;;;;;;5010443;28;20172;-44
2021/10/26 12:06:53;;;;;;;46.30;4.80;;;;;;;;;;5011104;28;20046;-41
2021/10/26 12:09:22;;;;;;;50.17;5.05;;;;;;;;;;5011683;28;20037;-43
2021/10/26 12:11:50;;;;;;;41.95;4.57;;;;;;;;;;5011365;28;20018;-45
2021/10/26 12:14:19;;;;;;;57.20;5.38;;;;;;;;;;5010954;28;20030;-43
2021/10/26 12:17:03;;;;;;;43.08;4.15;;;;;;;;;;5011363;28;20025;-46
2021/10/26 12:19:31;;;;;;;41.53;4.35;;;;;;;;;;5011319;28;20034;-44
2021/10/26 12:21:58;;;;;;;37.90;4.10;;;;;;;;;;5011062;28;20105;-43
2021/10/26 12:24:26;;;;;;;39.05;4.53;;;;;;;;;;5011196;28;20054;-48
2021/10/26 12:27:06;;;;;;;47.47;4.55;;;;;;;;;;5010433;28;20030;-45
2021/10/26 12:29:37;;;;;;;34.25;3.83;;;;;;;;;;5011273;28;20022;-42
2021/10/26 12:32:05;;;;;;;38.47;4.50;;;;;;;;;;5011100;28;20022;-44
2021/10/26 12:34:43;;;;;;;39.63;4.22;;;;;;;;;;5010604;28;20492;-45
2021/10/26 12:37:31;;;;;;;32.50;2.83;;;;;;;;;;5008367;28;20022;-48
2021/10/26 12:39:59;;;;;;;22.88;2.38;;;;;;;;;;5009801;28;20030;-45
2021/10/26 12:42:33;;;;;;;29.48;2.17;;;;;;;;;;5009110;28;20474;-43
2021/10/26 12:45:00;;;;;;;19.20;1.73;;;;;;;;;;5010272;28;20061;-49
2021/10/26 12:47:30;;;;;;;18.63;1.77;;;;;;;;;;5010613;28;20422;-53
2021/10/26 12:49:58;;;;;;;14.32;1.58;;;;;;;;;;5011060;28;20014;-47
2021/10/26 12:52:25;;;;;;;16.77;1.48;;;;;;;;;;4999843;28;20023;-53
2021/10/26 12:54:52;;;;;;;9.40;1.52;;;;;;;;;;4991638;28;20486;-48
2021/10/26 12:57:38;;;;;;;6.53;0.93;;;;;;;;;;4991618;28;20076;-50
2021/10/26 13:00:25;;;;;;;4.18;0.60;;;;;;;;;;4991335;28;20032;-53
2021/10/26 13:03:06;;;;;;;14.60;1.25;;;;;;;;;;4998321;28;20022;-48
2021/10/26 13:05:33;;;;;;;6.28;0.75;;;;;;;;;;5010222;28;20033;-53
2021/10/26 13:08:03;;;;;;;7.45;0.90;;;;;;;;;;5010553;28;20079;-55
2021/10/26 13:10:31;;;;;;;7.45;0.73;;;;;;;;;;5009400;28;20108;-50
2021/10/26 13:13:07;;;;;;;7.95;0.80;;;;;;;;;;5011284;28;20022;-64
2021/10/26 13:15:34;;;;;;;6.78;0.90;;;;;;;;;;5010428;28;20159;-52
2021/10/26 13:18:06;;;;;;;6.20;1.08;;;;;;;;;;5010179;28;20393;-52
2021/10/26 13:20:45;;;;;;;11.95;2.50;;;;;;;;;;5010081;28;20026;-49
2021/10/26 13:23:21;;;;;;;25.23;2.30;;;;;;;;;;5011116;28;20034;-58
2021/10/26 13:25:53;;;;;;;14.93;1.50;;;;;;;;;;5010409;28;20490;-49
2021/10/26 13:28:22;;;;;;;17.30;2.13;;;;;;;;;;5010366;28;21239;-49
2021/10/26 13:30:54;;;;;;;9.00;1.05;;;;;;;;;;5010167;28;20021;-50
2021/10/26 13:33:25;;;;;;;13.27;1.53;;;;;;;;;;5013015;28;20021;-53
2021/10/26 13:35:53;;;;;;;6.65;1.35;;;;;;;;;;5014372;28;20253;-52
2021/10/26 13:38:22;;;;;;;17.60;1.42;;;;;;;;;;5013688;28;20037;-47
2021/10/26 13:40:50;;;;;;;20.80;2.20;;;;;;;;;;5013942;28;20022;-54
2021/10/26 13:43:18;;;;;;;20.30;1.60;;;;;;;;;;5013540;28;20030;-51
2021/10/26 13:45:45;;;;;;;14.88;1.45;;;;;;;;;;5012522;28;20397;-47
2021/10/26 13:48:13;;;;;;;16.63;1.40;;;;;;;;;;5013423;28;20030;-47
2021/10/26 13:50:42;;;;;;;49.67;3.40;;;;;;;;;;5012658;28;20030;-50
2021/10/26 13:53:10;;;;;;;18.30;1.92;;;;;;;;;;5012785;28;20029;-50
2021/10/26 13:55:38;;;;;;;25.73;1.83;;;;;;;;;;5013132;28;20030;-48
2021/10/26 13:58:06;;;;;;;22.23;1.85;;;;;;;;;;5013974;28;20564;-53
2021/10/26 14:00:35;;;;;;;13.88;1.60;;;;;;;;;;5013731;28;20018;-51
2021/10/26 14:03:02;;;;;;;11.27;1.77;;;;;;;;;;5011720;28;20037;-50
2021/10/26 14:05:29;;;;;;;17.85;2.33;;;;;;;;;;5012908;28;20045;-56
2021/10/26 14:07:59;;;;;;;8.23;1.50;;;;;;;;;;5013427;28;20018;-56
2021/10/26 14:10:27;;;;;;;13.20;1.30;;;;;;;;;;5008519;28;20622;-55
2021/10/26 14:12:54;;;;;;;31.67;4.63;;;;;;;;;;4993151;28;20022;-50
2021/10/26 14:15:21;;;;;;;43.70;4.53;;;;;;;;;;4992320;28;20521;-50
2021/10/26 14:17:48;;;;;;;31.40;3.40;;;;;;;;;;4994511;28;20023;-54
2021/10/26 14:20:18;;;;;;;27.85;3.33;;;;;;;;;;4993548;28;20038;-49
2021/10/26 14:22:49;;;;;;;22.65;2.83;;;;;;;;;;4994774;28;20474;-54
2021/10/26 14:25:16;;;;;;;31.90;3.47;;;;;;;;;;4993036;28;20038;-50
2021/10/26 14:27:45;;;;;;;27.77;2.60;;;;;;;;;;4994163;28;20425;-50
2021/10/26 14:30:13;;;;;;;25.52;3.35;;;;;;;;;;4994294;28;20027;-49
2021/10/26 14:32:49;;;;;;;18.42;2.20;;;;;;;;;;4994120;28;20027;-56
2021/10/26 14:35:20;;;;;;;22.83;1.90;;;;;;;;;;4993427;28;20046;-52
2021/10/26 14:54:17;;;;;;;16.48;1.50;;;;;;;;;;5012550;28;20049;-50
2021/10/26 14:56:44;;;;;;;19.20;1.55;;;;;;;;;;5012201;28;20022;-51
2021/10/26 14:59:11;;;;;;;19.35;1.85;;;;;;;;;;5012866;28;20026;-44
2021/10/26 15:01:42;;;;;;;45.10;3.63;;;;;;;;;;5000063;28;20053;-44
2021/10/26 15:04:10;;;;;;;34.38;3.60;;;;;;;;;;4993226;28;20092;-48
2021/10/26 15:06:38;;;;;;;13.55;1.10;;;;;;;;;;5011093;28;20036;-46
2021/10/26 15:11:42;;;;;;;17.52;1.63;;;;;;;;;;5011384;28;20061;-47
2021/10/26 15:14:14;;;;;;;13.80;1.65;;;;;;;;;;5012016;28;20053;-48
2021/10/26 15:16:43;;;;;;;25.42;1.95;;;;;;;;;;5011512;28;20084;-47
2021/10/26 15:19:11;;;;;;;34.30;2.70;;;;;;;;;;5174249;23;20296;-46